Map

Track Data

SID SEASON NUMBER BASIN SUBBASIN NAME ISO_TIME NATURE LAT LON WMO_WIND WMO_PRES WMO_AGENCY TRACK_TYPE DIST2LAND LANDFALL IFLAG USA_AGENCY USA_ATCF_ID USA_LAT USA_LON USA_RECORD USA_STATUS USA_WIND USA_PRES USA_SSHS USA_R34_NE USA_R34_SE USA_R34_SW USA_R34_NW USA_R50_NE USA_R50_SE USA_R50_SW USA_R50_NW USA_R64_NE USA_R64_SE USA_R64_SW USA_R64_NW USA_POCI USA_ROCI USA_RMW USA_EYE TOKYO_LAT TOKYO_LON TOKYO_GRADE TOKYO_WIND TOKYO_PRES TOKYO_R50_DIR TOKYO_R50_LONG TOKYO_R50_SHORT TOKYO_R30_DIR TOKYO_R30_LONG TOKYO_R30_SHORT TOKYO_LAND CMA_LAT CMA_LON CMA_CAT CMA_WIND CMA_PRES HKO_LAT HKO_LON HKO_CAT HKO_WIND HKO_PRES NEWDELHI_LAT NEWDELHI_LON NEWDELHI_GRADE NEWDELHI_WIND NEWDELHI_PRES NEWDELHI_CI NEWDELHI_DP NEWDELHI_POCI REUNION_LAT REUNION_LON REUNION_TYPE REUNION_WIND REUNION_PRES REUNION_TNUM REUNION_CI REUNION_RMW REUNION_R34_NE REUNION_R34_SE REUNION_R34_SW REUNION_R34_NW REUNION_R50_NE REUNION_R50_SE REUNION_R50_SW REUNION_R50_NW REUNION_R64_NE REUNION_R64_SE REUNION_R64_SW REUNION_R64_NW BOM_LAT BOM_LON BOM_TYPE BOM_WIND BOM_PRES BOM_TNUM BOM_CI BOM_RMW BOM_R34_NE BOM_R34_SE BOM_R34_SW BOM_R34_NW BOM_R50_NE BOM_R50_SE BOM_R50_SW BOM_R50_NW BOM_R64_NE BOM_R64_SE BOM_R64_SW BOM_R64_NW BOM_ROCI BOM_POCI BOM_EYE BOM_POS_METHOD BOM_PRES_METHOD NADI_LAT NADI_LON NADI_CAT NADI_WIND NADI_PRES WELLINGTON_LAT WELLINGTON_LON WELLINGTON_WIND WELLINGTON_PRES DS824_LAT DS824_LON DS824_STAGE DS824_WIND DS824_PRES TD9636_LAT TD9636_LON TD9636_STAGE TD9636_WIND TD9636_PRES TD9635_LAT TD9635_LON TD9635_WIND TD9635_PRES TD9635_ROCI NEUMANN_LAT NEUMANN_LON NEUMANN_CLASS NEUMANN_WIND NEUMANN_PRES MLC_LAT MLC_LON MLC_CLASS MLC_WIND MLC_PRES USA_GUST BOM_GUST BOM_GUST_PER REUNION_GUST REUNION_GUST_PER USA_SEAHGT USA_SEARAD_NE USA_SEARAD_SE USA_SEARAD_SW USA_SEARAD_NW STORM_SPEED STORM_DIR
1923041S12163 1923 9 SP MM NOT_NAMED 1923-02-09 12:00:00 NR -12.4000 163.200 main 204 199 __________O___ -1 -12.4000 163.200 7 3 235
1923041S12163 1923 9 SP MM NOT_NAMED 1923-02-09 15:00:00 NR -12.5000 163.056 main 209 205 __________P___ -1 -12.5000 163.056 7 3 235
1923041S12163 1923 9 SP MM NOT_NAMED 1923-02-09 18:00:00 NR -12.6000 162.910 main 211 208 __________P___ -1 -12.6000 162.910 7 4 236
1923041S12163 1923 9 SP MM NOT_NAMED 1923-02-09 21:00:00 NR -12.7000 162.759 main 219 217 __________P___ -1 -12.7000 162.759 7 4 237
1923041S12163 1923 9 SP MM NOT_NAMED 1923-02-10 00:00:00 NR -12.8000 162.600 main 226 225 __________O___ -1 -12.8000 162.600 7 4 237
1923041S12163 1923 9 SP MM NOT_NAMED 1923-02-10 03:00:00 NR -12.9031 162.432 main 235 235 __________P___ -1 -12.9031 162.432 7 4 236
1923041S12163 1923 9 SP MM NOT_NAMED 1923-02-10 06:00:00 NR -13.0250 162.257 main 246 246 __________P___ -1 -13.0250 162.257 7 4 231
1923041S12163 1923 9 SP MM NOT_NAMED 1923-02-10 09:00:00 NR -13.1844 162.079 main 268 268 __________P___ -1 -13.1844 162.079 7 5 223
1923041S12163 1923 9 SP MM NOT_NAMED 1923-02-10 12:00:00 NR -13.4000 161.900 main 291 291 __________O___ -1 -13.4000 161.900 7 6 223
1923041S12163 1923 9 SP MM NOT_NAMED 1923-02-10 15:00:00 NR -13.6560 161.633 main 325 325 __________P___ -1 -13.6560 161.633 7 8 221
1923041S12163 1923 9 SP MM NOT_NAMED 1923-02-10 18:00:00 NR -13.9724 161.380 main 360 360 __________P___ -1 -13.9724 161.380 7 8 210
1923041S12163 1923 9 SP MM NOT_NAMED 1923-02-10 21:00:00 NR -14.3526 161.212 main 408 408 __________P___ -1 -14.3526 161.212 7 9 192
1923041S12163 1923 9 SP MM NOT_NAMED 1923-02-11 00:00:00 NR -14.8000 161.200 main 452 452 __________O___ -1 -14.8000 161.200 7 10 170
1923041S12163 1923 9 SP MM NOT_NAMED 1923-02-11 03:00:00 NR -15.3548 161.401 main 516 516 __________P___ -1 -15.3548 161.401 7 13 155
1923041S12163 1923 9 SP MM NOT_NAMED 1923-02-11 06:00:00 NR -15.9648 161.765 main 518 459 __________P___ -1 -15.9648 161.765 7 15 146
1923041S12163 1923 9 SP MM NOT_NAMED 1923-02-11 09:00:00 NR -16.5673 162.248 main 449 372 __________P___ -1 -16.5673 162.248 7 15 139
1923041S12163 1923 9 SP MM NOT_NAMED 1923-02-11 12:00:00 NR -17.1000 162.800 main 372 313 __________O___ -1 -17.1000 162.800 7 14 132
1923041S12163 1923 9 SP MM NOT_NAMED 1923-02-11 15:00:00 NR -17.4829 163.327 main 313 269 __________P___ -1 -17.4829 163.327 7 13 123
1923041S12163 1923 9 SP MM NOT_NAMED 1923-02-11 18:00:00 NR -17.7896 163.912 main 269 247 __________P___ -1 -17.7896 163.912 7 13 116
1923041S12163 1923 9 SP MM NOT_NAMED 1923-02-11 21:00:00 NR -18.0514 164.540 main 238 232 __________P___ -1 -18.0514 164.540 7 13 113
1923041S12163 1923 9 SP MM NOT_NAMED 1923-02-12 00:00:00 NR -18.3000 165.200 main 235 228 __________O___ -1 -18.3000 165.200 7 14 113
1923041S12163 1923 9 SP MM NOT_NAMED 1923-02-12 03:00:00 NR -18.5898 165.864 main 240 238 __________P___ -1 -18.5898 165.864 7 14 114
1923041S12163 1923 9 SP MM NOT_NAMED 1923-02-12 06:00:00 NR -18.8717 166.556 main 258 258 __________P___ -1 -18.8717 166.556 7 14 113
1923041S12163 1923 9 SP MM NOT_NAMED 1923-02-12 09:00:00 NR -19.1428 167.270 main 280 280 __________P___ -1 -19.1428 167.270 7 15 111
1923041S12163 1923 9 SP MM NOT_NAMED 1923-02-12 12:00:00 NR -19.4000 168.000 main 306 306 __________O___ -1 -19.4000 168.000 7 15 110
1923041S12163 1923 9 SP MM NOT_NAMED 1923-02-12 15:00:00 NR -19.6555 168.756 main 333 333 __________P___ -1 -19.6555 168.756 7 15 109
1923041S12163 1923 9 SP MM NOT_NAMED 1923-02-12 18:00:00 NR -19.8950 169.522 main 365 365 __________P___ -1 -19.8950 169.522 7 15 108
1923041S12163 1923 9 SP MM NOT_NAMED 1923-02-12 21:00:00 NR -20.1119 170.278 main 414 414 __________P___ -1 -20.1119 170.278 7 14 106
1923041S12163 1923 9 SP MM NOT_NAMED 1923-02-13 00:00:00 NR -20.3000 171.000 main 465 465 __________O___ -1 -20.3000 171.000 7 14 105
1923041S12163 1923 9 SP MM NOT_NAMED 1923-02-13 03:00:00 NR -20.4729 171.669 main 522 522 __________P___ -1 -20.4729 171.669 7 13 105
1923041S12163 1923 9 SP MM NOT_NAMED 1923-02-13 06:00:00 NR -20.6160 172.303 main 576 542 __________P___ -1 -20.6160 172.303 7 12 102
1923041S12163 1923 9 SP MM NOT_NAMED 1923-02-13 09:00:00 NR -20.7262 172.910 main 542 498 __________P___ -1 -20.7262 172.910 7 11 99
1923041S12163 1923 9 SP MM NOT_NAMED 1923-02-13 12:00:00 NR -20.8000 173.500 main 498 459 __________O___ -1 -20.8000 173.500 7 11 96
1923041S12163 1923 9 SP MM NOT_NAMED 1923-02-13 15:00:00 NR -20.8361 174.082 main 451 413 __________P___ -1 -20.8361 174.082 7 11 92
1923041S12163 1923 9 SP MM NOT_NAMED 1923-02-13 18:00:00 NR -20.8417 174.658 main 406 373 __________P___ -1 -20.8417 174.658 7 11 89
1923041S12163 1923 9 SP MM NOT_NAMED 1923-02-13 21:00:00 NR -20.8265 175.230 main 373 340 __________P___ -1 -20.8265 175.230 7 11 88
1923041S12163 1923 9 SP MM NOT_NAMED 1923-02-14 00:00:00 NR -20.8000 175.800 main 340 __________O___ -1 -20.8000 175.800 7 11 87

Digital Typhoon Data and Search

About IBTrACS Database

This database is a web-friendly format of International Best Track Archive for Climate Stewardship (IBTrACS), a global best track data archive curated by NOAA dating back to 1842.

Updated: 2021-11-26